Eoline, Alabama
Current Conditions -  °F | °C
As of 10:53 AM on Saturday 25 Oct 2014 (Local Time) from KEET Reporting Station
Clear Clear  
Wind Chill: 69°   Ceiling: Unl
Heat Index: 69°   Visibility: 10mi
Dew Point: 52°   Wind: 7mph
Humidity: 54%   Direction: 330°NNW
Pressure: 30.13"   Gusts: NA
Location:  32.9085°N, 87.0467°W
Report Text: KEET 251553Z AUTO 33006KT 10SM CLR 21/11 A3013 RMK AO2 SLP198 T02060111
Loading
Personal Weather Stations






























Interactive Weather Map
Tropical Storm Tracking
New forecast layout! Learn more

10-Day Weather Forecast

Advertisements
Track Severe Weather on mobile